createdAt,value
2022-10-28T00:02:10.259Z,17.81
2022-10-28T00:07:11.875Z,17.90
2022-10-28T00:12:13.422Z,18.20
2022-10-28T00:17:14.979Z,18.52
2022-10-28T00:22:16.511Z,18.61
2022-10-28T00:27:18.067Z,18.58
2022-10-28T00:32:19.609Z,18.56
2022-10-28T00:37:21.410Z,18.52
2022-10-28T00:42:23.001Z,18.49
2022-10-28T00:47:42.797Z,18.44
2022-10-28T00:52:48.351Z,18.53
2022-10-28T00:57:50.711Z,18.57
2022-10-28T01:02:52.584Z,18.31
2022-10-28T01:07:59.457Z,18.25
2022-10-28T01:13:19.994Z,18.23
2022-10-28T01:18:52.866Z,18.24
2022-10-28T01:24:31.150Z,18.22
2022-10-28T01:29:50.965Z,18.29
2022-10-28T01:35:07.669Z,18.39
2022-10-28T01:40:13.421Z,18.29
2022-10-28T01:45:21.447Z,18.26
2022-10-28T01:50:26.012Z,18.22
2022-10-28T01:55:33.039Z,18.26
2022-10-28T02:00:36.810Z,18.44
2022-10-28T02:05:45.670Z,18.59
2022-10-28T02:11:12.747Z,18.69
2022-10-28T02:16:47.929Z,18.68
2022-10-28T02:21:58.535Z,18.42
2022-10-28T02:27:17.967Z,18.39
2022-10-28T02:32:23.264Z,18.27
2022-10-28T02:37:31.195Z,17.95
2022-10-28T02:42:45.756Z,17.82
2022-10-28T02:47:53.751Z,17.67
2022-10-28T02:52:58.487Z,17.60
2022-10-28T02:58:00.178Z,17.73
2022-10-28T03:03:01.928Z,17.98
2022-10-28T03:08:03.766Z,17.88
2022-10-28T03:13:05.275Z,17.77
2022-10-28T03:18:06.768Z,17.63
2022-10-28T03:23:08.360Z,17.61
2022-10-28T03:28:09.842Z,17.51
2022-10-28T03:33:11.426Z,17.64
2022-10-28T03:38:13.059Z,17.90
2022-10-28T03:43:15.152Z,17.98
2022-10-28T03:48:16.695Z,18.06
2022-10-28T03:53:18.249Z,18.13
2022-10-28T03:58:20.349Z,18.10
2022-10-28T04:03:23.417Z,17.84
2022-10-28T04:08:24.999Z,17.56
2022-10-28T04:13:26.535Z,17.07
2022-10-28T04:18:28.039Z,16.51
2022-10-28T04:23:29.682Z,16.43
2022-10-28T04:28:31.203Z,16.53
2022-10-28T04:33:32.793Z,16.70
2022-10-28T04:38:34.303Z,16.75
2022-10-28T04:43:35.820Z,16.48
2022-10-28T04:48:38.601Z,16.64
2022-10-28T04:53:40.196Z,16.70
2022-10-28T04:58:41.727Z,16.74
2022-10-28T05:03:43.255Z,16.70
2022-10-28T05:08:44.779Z,16.59
2022-10-28T05:13:46.405Z,16.43
2022-10-28T05:18:48.015Z,16.37
2022-10-28T05:23:49.609Z,16.14
2022-10-28T05:28:51.345Z,16.25
2022-10-28T05:33:52.870Z,16.46
2022-10-28T05:38:54.396Z,16.27
2022-10-28T05:43:55.949Z,16.26
2022-10-28T05:48:57.538Z,16.51
2022-10-28T05:53:59.164Z,16.72
2022-10-28T05:59:00.736Z,16.94
2022-10-28T06:04:02.327Z,16.98
2022-10-28T06:09:04.565Z,17.03
2022-10-28T06:14:04.560Z,16.78
2022-10-28T06:19:06.122Z,16.68
2022-10-28T06:24:12.073Z,16.54
2022-10-28T06:29:13.906Z,16.60
2022-10-28T06:34:15.627Z,16.58
2022-10-28T06:39:17.538Z,16.79
2022-10-28T06:44:19.057Z,16.74
2022-10-28T06:49:23.469Z,16.51
2022-10-28T06:54:25.003Z,16.57
2022-10-28T06:59:26.524Z,16.79
2022-10-28T07:04:28.156Z,17.05
2022-10-28T07:09:29.749Z,17.04
2022-10-28T07:14:31.321Z,17.09
2022-10-28T07:19:32.950Z,17.21
2022-10-28T07:24:34.499Z,17.28
2022-10-28T07:29:36.055Z,17.63
2022-10-28T07:34:37.544Z,17.92
2022-10-28T07:39:39.098Z,17.86
2022-10-28T07:44:40.645Z,17.55
2022-10-28T07:49:42.209Z,17.79
2022-10-28T07:54:43.723Z,18.20
2022-10-28T07:59:45.331Z,18.43
2022-10-28T08:04:47.098Z,18.45
2022-10-28T08:09:48.727Z,18.46
2022-10-28T08:14:50.267Z,18.58
2022-10-28T08:19:51.930Z,18.74
2022-10-28T08:24:53.715Z,18.81
2022-10-28T08:29:55.231Z,18.93
2022-10-28T08:34:56.735Z,19.03
2022-10-28T08:39:58.285Z,19.15
2022-10-28T08:45:22.794Z,19.33
2022-10-28T08:50:26.597Z,19.50
2022-10-28T08:55:38.456Z,19.84
2022-10-28T09:00:40.112Z,20.12
2022-10-28T09:05:47.791Z,20.60
2022-10-28T09:11:04.465Z,20.80
2022-10-28T09:16:05.980Z,20.81
2022-10-28T09:21:18.334Z,21.26
2022-10-28T09:26:58.691Z,21.41
2022-10-28T09:32:15.489Z,21.65
2022-10-28T09:37:25.591Z,21.61
2022-10-28T09:42:32.768Z,21.49
2022-10-28T09:47:42.009Z,22.56
2022-10-28T09:53:03.436Z,23.58
2022-10-28T09:58:05.566Z,23.60
2022-10-28T10:03:07.162Z,23.40
2022-10-28T10:08:14.747Z,24.16
2022-10-28T10:13:21.991Z,24.58
2022-10-28T10:18:29.584Z,24.41
2022-10-28T10:23:32.692Z,25.01
2022-10-28T10:28:38.561Z,23.95
2022-10-28T10:33:40.725Z,24.05
2022-10-28T10:38:52.450Z,24.21
2022-10-28T10:43:54.068Z,23.53
2022-10-28T10:49:13.775Z,23.86
2022-10-28T10:54:15.657Z,23.78
2022-10-28T10:59:28.486Z,23.82
2022-10-28T11:04:30.263Z,24.10
2022-10-28T11:09:36.001Z,25.02
2022-10-28T11:14:37.596Z,25.66
2022-10-28T11:19:39.093Z,25.88
2022-10-28T11:24:58.886Z,26.74
2022-10-28T11:30:01.768Z,26.23
2022-10-28T11:35:33.515Z,25.67
2022-10-28T11:40:56.070Z,25.18
2022-10-28T11:46:07.870Z,25.06
2022-10-28T11:51:37.898Z,25.46
2022-10-28T11:56:47.895Z,25.62
2022-10-28T12:01:49.563Z,25.41
2022-10-28T12:07:00.241Z,25.55
2022-10-28T12:12:21.597Z,26.32
2022-10-28T12:17:50.474Z,27.14
2022-10-28T12:23:00.010Z,27.62
2022-10-28T12:28:07.338Z,27.75
2022-10-28T12:33:20.307Z,28.42
2022-10-28T12:38:40.076Z,28.29
2022-10-28T12:43:55.290Z,27.54
2022-10-28T12:49:06.083Z,26.56
2022-10-28T12:54:52.701Z,26.79
2022-10-28T13:00:06.370Z,26.98
2022-10-28T13:05:19.889Z,26.47
2022-10-28T13:10:37.260Z,25.98
2022-10-28T13:15:59.043Z,25.95
2022-10-28T13:21:30.895Z,25.85
2022-10-28T13:26:37.801Z,26.04
2022-10-28T13:31:45.027Z,25.98
2022-10-28T13:37:17.475Z,26.27
2022-10-28T13:42:18.995Z,26.45
2022-10-28T13:47:24.564Z,26.13
2022-10-28T13:52:26.107Z,25.91
2022-10-28T13:57:38.084Z,25.56
2022-10-28T14:02:46.335Z,25.34
2022-10-28T14:08:00.121Z,25.05
2022-10-28T14:13:03.515Z,24.76
2022-10-28T14:18:41.799Z,24.78
2022-10-28T14:23:35.673Z,24.74
2022-10-28T14:28:37.218Z,24.63
2022-10-28T14:33:41.873Z,24.49
2022-10-28T14:39:21.230Z,24.44
2022-10-28T14:44:44.193Z,24.21
2022-10-28T14:50:17.470Z,24.21
2022-10-28T14:55:25.954Z,23.91
2022-10-28T15:00:28.127Z,23.87
2022-10-28T15:05:30.494Z,23.73
2022-10-28T15:10:33.915Z,23.64
2022-10-28T15:15:35.486Z,23.27
2022-10-28T15:20:37.087Z,23.08
2022-10-28T15:25:38.619Z,22.97
2022-10-28T15:30:46.344Z,22.94
2022-10-28T15:35:48.672Z,22.82
2022-10-28T15:40:50.253Z,22.70
2022-10-28T15:45:52.102Z,22.66
2022-10-28T15:51:14.956Z,22.56
2022-10-28T15:56:26.573Z,22.44
2022-10-28T16:01:38.809Z,22.34
2022-10-28T16:06:40.471Z,22.27
2022-10-28T16:11:46.554Z,21.93
2022-10-28T16:16:48.007Z,21.52
2022-10-28T16:21:49.649Z,21.21
2022-10-28T16:26:51.195Z,20.76
2022-10-28T16:31:52.816Z,20.59
2022-10-28T16:36:54.554Z,20.47
2022-10-28T16:41:57.500Z,20.55
2022-10-28T16:46:59.036Z,20.47
2022-10-28T16:52:00.558Z,20.59
2022-10-28T16:57:02.104Z,20.53
2022-10-28T17:02:05.130Z,20.45
2022-10-28T17:07:07.276Z,20.39
2022-10-28T17:12:18.131Z,20.39
2022-10-28T17:17:19.759Z,20.23
2022-10-28T17:22:21.338Z,20.00
2022-10-28T17:27:23.200Z,19.93
2022-10-28T17:32:24.760Z,20.14
2022-10-28T17:37:26.276Z,20.37
2022-10-28T17:42:28.732Z,20.09
2022-10-28T17:47:32.940Z,19.78
2022-10-28T17:52:38.204Z,19.78
2022-10-28T17:57:40.072Z,19.65
2022-10-28T18:02:41.643Z,19.62
2022-10-28T18:07:43.294Z,19.47
2022-10-28T18:12:44.797Z,19.20
2022-10-28T18:17:49.989Z,19.00
2022-10-28T18:22:51.768Z,18.65
2022-10-28T18:27:53.465Z,18.51
2022-10-28T18:32:55.324Z,18.34
2022-10-28T18:37:57.368Z,18.19
2022-10-28T18:42:59.121Z,18.10
2022-10-28T18:48:00.720Z,17.94
2022-10-28T18:53:02.697Z,17.96
2022-10-28T18:58:04.172Z,17.96
2022-10-28T19:03:05.822Z,18.07
2022-10-28T19:08:07.396Z,18.13
2022-10-28T19:13:08.939Z,18.19
2022-10-28T19:18:11.451Z,18.28
2022-10-28T19:23:14.751Z,18.26
2022-10-28T19:28:16.277Z,18.32
2022-10-28T19:33:17.846Z,18.40
2022-10-28T19:38:19.390Z,18.28
2022-10-28T19:43:20.909Z,18.23
2022-10-28T19:48:22.437Z,18.29
2022-10-28T19:53:23.953Z,18.55
2022-10-28T19:58:26.231Z,18.58
2022-10-28T20:03:30.464Z,18.66
2022-10-28T20:08:43.955Z,18.55
2022-10-28T20:13:45.465Z,18.41
2022-10-28T20:18:47.273Z,18.38
2022-10-28T20:28:53.381Z,18.34
2022-10-28T20:33:56.815Z,18.65
2022-10-28T20:38:59.682Z,18.64
2022-10-28T20:44:01.381Z,18.73
2022-10-28T20:49:03.934Z,18.82
2022-10-28T20:54:05.809Z,18.73
2022-10-28T20:59:07.581Z,18.62
2022-10-28T21:04:10.730Z,18.49
2022-10-28T21:09:12.247Z,18.50
2022-10-28T21:14:13.735Z,18.41
2022-10-28T21:19:15.344Z,18.47
2022-10-28T21:24:16.902Z,18.39
2022-10-28T21:29:18.409Z,18.36
2022-10-28T21:34:19.943Z,18.29
2022-10-28T21:39:21.453Z,18.28
2022-10-28T21:44:22.988Z,18.19
2022-10-28T21:49:24.569Z,18.02
2022-10-28T21:54:26.076Z,17.86
2022-10-28T21:59:28.016Z,17.60
2022-10-28T22:04:29.606Z,17.29
2022-10-28T22:09:34.888Z,17.07
2022-10-28T22:14:38.955Z,16.90
2022-10-28T22:19:40.493Z,17.23
2022-10-28T22:24:42.272Z,17.23
2022-10-28T22:29:43.785Z,17.16
2022-10-28T22:34:45.354Z,16.92
2022-10-28T22:39:46.895Z,16.69
2022-10-28T22:44:48.401Z,16.47
2022-10-28T22:49:49.902Z,16.44
2022-10-28T22:54:51.410Z,16.43
2022-10-28T22:59:52.954Z,16.53
2022-10-28T23:04:54.454Z,16.41
2022-10-28T23:09:55.960Z,16.35
2022-10-28T23:14:57.454Z,16.45
2022-10-28T23:19:58.984Z,16.63
2022-10-28T23:25:00.510Z,16.72
2022-10-28T23:30:02.028Z,16.94
2022-10-28T23:35:04.308Z,16.95
2022-10-28T23:40:06.387Z,17.03
2022-10-28T23:45:08.501Z,16.97
2022-10-28T23:50:10.084Z,16.97
2022-10-28T23:55:11.623Z,16.90
